sensor_id;sensor_type;location;lat;lon;timestamp;pressure;altitude;pressure_sealevel;temperature;humidity
12951;BME280;6540;50.858;7.232;2023-02-03T00:00:59;51959.44;;;-142.34;32.82
12951;BME280;6540;50.858;7.232;2023-02-03T00:03:25;51935.25;;;-142.34;33.42
12951;BME280;6540;50.858;7.232;2023-02-03T00:05:51;51951.38;;;-142.34;33.49
12951;BME280;6540;50.858;7.232;2023-02-03T00:08:17;51939.28;;;-142.34;33.27
12951;BME280;6540;50.858;7.232;2023-02-03T00:10:44;51939.28;;;-142.34;34.16
12951;BME280;6540;50.858;7.232;2023-02-03T00:13:09;51925.16;;;-142.34;34.46
12951;BME280;6540;50.858;7.232;2023-02-03T00:15:35;51931.19;;;-142.34;34.41
12951;BME280;6540;50.858;7.232;2023-02-03T00:18:00;51955.41;;;-142.34;33.43
12951;BME280;6540;50.858;7.232;2023-02-03T00:20:25;51925.16;;;-142.34;33.12
12951;BME280;6540;50.858;7.232;2023-02-03T00:22:54;51931.19;;;-142.34;33.83
12951;BME280;6540;50.858;7.232;2023-02-03T00:25:19;51923.13;;;-142.34;33.04
12951;BME280;6540;50.858;7.232;2023-02-03T00:27:45;51943.31;;;-142.34;33.32
12951;BME280;6540;50.858;7.232;2023-02-03T00:30:11;51896.91;;;-142.34;33.77
12951;BME280;6540;50.858;7.232;2023-02-03T00:32:37;51951.38;;;-142.34;33.58
12951;BME280;6540;50.858;7.232;2023-02-03T00:35:02;51923.13;;;-142.34;33.10
12951;BME280;6540;50.858;7.232;2023-02-03T00:37:28;51911.03;;;-142.34;33.42
12951;BME280;6540;50.858;7.232;2023-02-03T00:39:54;51939.28;;;-142.34;33.22
12951;BME280;6540;50.858;7.232;2023-02-03T00:42:19;51971.53;;;-142.34;33.98
12951;BME280;6540;50.858;7.232;2023-02-03T00:44:44;51945.31;;;-142.34;33.87
12951;BME280;6540;50.858;7.232;2023-02-03T00:47:09;51923.13;;;-142.34;32.96
12951;BME280;6540;50.858;7.232;2023-02-03T00:49:35;51917.06;;;-142.34;33.35
12951;BME280;6540;50.858;7.232;2023-02-03T00:52:00;51947.34;;;-142.34;32.73
12951;BME280;6540;50.858;7.232;2023-02-03T00:54:26;51963.47;;;-142.34;33.74
12951;BME280;6540;50.858;7.232;2023-02-03T00:56:51;51959.44;;;-142.34;33.76
12951;BME280;6540;50.858;7.232;2023-02-03T00:59:16;51947.34;;;-142.34;33.27
12951;BME280;6540;50.858;7.232;2023-02-03T01:01:42;51961.47;;;-142.34;33.82
12951;BME280;6540;50.858;7.232;2023-02-03T01:04:07;51931.19;;;-142.34;32.83
12951;BME280;6540;50.858;7.232;2023-02-03T01:06:32;51945.31;;;-142.34;33.81
12951;BME280;6540;50.858;7.232;2023-02-03T01:09:00;51890.84;;;-142.34;33.56
12951;BME280;6540;50.858;7.232;2023-02-03T01:11:26;51947.34;;;-142.34;33.13
12951;BME280;6540;50.858;7.232;2023-02-03T01:13:53;51911.03;;;-142.34;34.33
12951;BME280;6540;50.858;7.232;2023-02-03T01:16:21;51943.31;;;-142.34;33.08
12951;BME280;6540;50.858;7.232;2023-02-03T01:18:47;51939.28;;;-142.34;33.22
12951;BME280;6540;50.858;7.232;2023-02-03T01:21:18;51951.38;;;-142.34;32.57
12951;BME280;6540;50.858;7.232;2023-02-03T01:23:44;51925.16;;;-142.34;32.08
12951;BME280;6540;50.858;7.232;2023-02-03T01:26:12;51902.97;;;-142.34;32.64
12951;BME280;6540;50.858;7.232;2023-02-03T01:28:38;51947.34;;;-142.34;33.39
12951;BME280;6540;50.858;7.232;2023-02-03T01:31:11;51929.19;;;-142.34;32.60
12951;BME280;6540;50.858;7.232;2023-02-03T01:33:37;51909.00;;;-142.34;32.79
12951;BME280;6540;50.858;7.232;2023-02-03T01:36:08;51929.19;;;-142.34;32.78
12951;BME280;6540;50.858;7.232;2023-02-03T01:38:35;51939.28;;;-142.34;32.38
12951;BME280;6540;50.858;7.232;2023-02-03T01:41:00;51943.31;;;-142.34;32.77
12951;BME280;6540;50.858;7.232;2023-02-03T01:43:32;51923.13;;;-142.34;32.74
12951;BME280;6540;50.858;7.232;2023-02-03T01:46:01;51927.16;;;-142.34;32.91
12951;BME280;6540;50.858;7.232;2023-02-03T01:48:30;51945.31;;;-142.34;32.42
12951;BME280;6540;50.858;7.232;2023-02-03T01:50:57;51937.25;;;-142.34;31.51
12951;BME280;6540;50.858;7.232;2023-02-03T01:53:24;51945.31;;;-142.34;31.90
12951;BME280;6540;50.858;7.232;2023-02-03T01:55:50;51900.94;;;-142.34;31.32
12951;BME280;6540;50.858;7.232;2023-02-03T01:58:28;51943.31;;;-142.34;32.47
12951;BME280;6540;50.858;7.232;2023-02-03T02:00:57;51943.31;;;-142.34;32.44
12951;BME280;6540;50.858;7.232;2023-02-03T02:03:30;51917.06;;;-142.34;32.98
12951;BME280;6540;50.858;7.232;2023-02-03T02:06:02;51919.09;;;-142.34;33.10
12951;BME280;6540;50.858;7.232;2023-02-03T02:08:29;51957.44;;;-142.34;32.81
12951;BME280;6540;50.858;7.232;2023-02-03T02:10:55;51937.25;;;-142.34;32.41
12951;BME280;6540;50.858;7.232;2023-02-03T02:13:22;51911.03;;;-142.34;33.08
12951;BME280;6540;50.858;7.232;2023-02-03T02:19:03;51935.25;;;-142.34;33.03
12951;BME280;6540;50.858;7.232;2023-02-03T02:35:57;51939.28;;;-142.34;32.11
12951;BME280;6540;50.858;7.232;2023-02-03T02:39:09;51937.25;;;-142.34;31.72
12951;BME280;6540;50.858;7.232;2023-02-03T02:42:13;51919.09;;;-142.34;32.93
12951;BME280;6540;50.858;7.232;2023-02-03T02:44:58;51975.59;;;-142.34;32.39
12951;BME280;6540;50.858;7.232;2023-02-03T02:47:29;51892.88;;;-142.34;32.86
12951;BME280;6540;50.858;7.232;2023-02-03T02:52:27;51919.09;;;-142.34;33.12
12951;BME280;6540;50.858;7.232;2023-02-03T02:54:57;51963.47;;;-142.34;33.31
12951;BME280;6540;50.858;7.232;2023-02-03T02:57:26;51923.13;;;-142.34;31.60
12951;BME280;6540;50.858;7.232;2023-02-03T02:59:53;51935.25;;;-142.34;32.11
12951;BME280;6540;50.858;7.232;2023-02-03T03:02:18;51969.53;;;-142.34;32.59
12951;BME280;6540;50.858;7.232;2023-02-03T03:04:45;51951.38;;;-142.34;31.42
12951;BME280;6540;50.858;7.232;2023-02-03T03:07:20;51921.13;;;-142.34;32.07
12951;BME280;6540;50.858;7.232;2023-02-03T03:09:50;51935.25;;;-142.34;30.57
12951;BME280;6540;50.858;7.232;2023-02-03T03:12:27;51913.03;;;-142.34;32.62
12951;BME280;6540;50.858;7.232;2023-02-03T03:15:02;51945.31;;;-142.34;31.21
12951;BME280;6540;50.858;7.232;2023-02-03T03:17:33;51935.25;;;-142.34;32.42
12951;BME280;6540;50.858;7.232;2023-02-03T03:20:03;51919.09;;;-142.34;32.18
12951;BME280;6540;50.858;7.232;2023-02-03T03:22:34;51931.19;;;-142.34;33.25
12951;BME280;6540;50.858;7.232;2023-02-03T03:25:20;51953.41;;;-142.34;31.57
12951;BME280;6540;50.858;7.232;2023-02-03T03:27:53;51951.38;;;-142.34;31.38
12951;BME280;6540;50.858;7.232;2023-02-03T03:30:23;51931.19;;;-142.34;31.13
12951;BME280;6540;50.858;7.232;2023-02-03T03:32:49;51957.44;;;-142.34;32.70
12951;BME280;6540;50.858;7.232;2023-02-03T03:35:15;51902.97;;;-142.34;32.57
12951;BME280;6540;50.858;7.232;2023-02-03T03:37:51;51907.00;;;-142.34;32.58
12951;BME280;6540;50.858;7.232;2023-02-03T03:40:38;51943.31;;;-142.34;31.01
12951;BME280;6540;50.858;7.232;2023-02-03T03:43:12;51939.28;;;-142.34;31.74
12951;BME280;6540;50.858;7.232;2023-02-03T03:45:52;51919.09;;;-142.34;33.27
12951;BME280;6540;50.858;7.232;2023-02-03T03:48:36;51927.16;;;-142.34;33.56
12951;BME280;6540;50.858;7.232;2023-02-03T03:51:17;51947.34;;;-142.34;32.42
12951;BME280;6540;50.858;7.232;2023-02-03T03:53:45;51927.16;;;-142.34;31.24
12951;BME280;6540;50.858;7.232;2023-02-03T03:56:16;51919.09;;;-142.34;31.06
12951;BME280;6540;50.858;7.232;2023-02-03T03:58:45;51915.06;;;-142.34;32.06
12951;BME280;6540;50.858;7.232;2023-02-03T04:01:14;51902.97;;;-142.34;31.91
12951;BME280;6540;50.858;7.232;2023-02-03T04:03:44;51951.38;;;-142.34;32.13
12951;BME280;6540;50.858;7.232;2023-02-03T04:06:11;51955.41;;;-142.34;32.81
12951;BME280;6540;50.858;7.232;2023-02-03T04:08:37;51917.06;;;-142.34;32.94
12951;BME280;6540;50.858;7.232;2023-02-03T04:11:04;51943.31;;;-142.34;33.69
12951;BME280;6540;50.858;7.232;2023-02-03T04:13:29;51941.28;;;-142.34;32.25
12951;BME280;6540;50.858;7.232;2023-02-03T04:15:55;51921.13;;;-142.34;33.37
12951;BME280;6540;50.858;7.232;2023-02-03T04:18:20;51939.28;;;-142.34;32.69
12951;BME280;6540;50.858;7.232;2023-02-03T04:20:45;51925.16;;;-142.34;32.35
12951;BME280;6540;50.858;7.232;2023-02-03T04:23:11;51919.09;;;-142.34;31.56
12951;BME280;6540;50.858;7.232;2023-02-03T04:25:36;51931.19;;;-142.34;32.03
12951;BME280;6540;50.858;7.232;2023-02-03T04:28:01;51945.31;;;-142.34;30.92
12951;BME280;6540;50.858;7.232;2023-02-03T04:30:27;51927.16;;;-142.34;33.55
12951;BME280;6540;50.858;7.232;2023-02-03T04:32:53;51951.38;;;-142.34;32.90
12951;BME280;6540;50.858;7.232;2023-02-03T04:35:18;51939.28;;;-142.34;30.50
12951;BME280;6540;50.858;7.232;2023-02-03T04:37:44;51961.47;;;-142.34;31.26
12951;BME280;6540;50.858;7.232;2023-02-03T04:40:10;51939.28;;;-142.34;34.05
12951;BME280;6540;50.858;7.232;2023-02-03T04:42:37;51941.28;;;-142.34;32.86
12951;BME280;6540;50.858;7.232;2023-02-03T04:45:03;51911.03;;;-142.34;32.79
12951;BME280;6540;50.858;7.232;2023-02-03T04:47:29;51935.25;;;-142.34;31.94
12951;BME280;6540;50.858;7.232;2023-02-03T04:49:54;51933.22;;;-142.34;32.50
12951;BME280;6540;50.858;7.232;2023-02-03T04:52:19;51953.41;;;-142.34;33.49
12951;BME280;6540;50.858;7.232;2023-02-03T04:54:45;51975.59;;;-142.34;32.48
12951;BME280;6540;50.858;7.232;2023-02-03T04:57:10;51890.84;;;-142.34;31.92
12951;BME280;6540;50.858;7.232;2023-02-03T04:59:35;51931.19;;;-142.34;32.30
12951;BME280;6540;50.858;7.232;2023-02-03T05:02:02;51945.31;;;-142.34;31.74
12951;BME280;6540;50.858;7.232;2023-02-03T05:04:28;51933.22;;;-142.34;32.18
12951;BME280;6540;50.858;7.232;2023-02-03T05:06:53;51949.34;;;-142.34;32.72
12951;BME280;6540;50.858;7.232;2023-02-03T05:09:20;51945.31;;;-142.34;32.44
12951;BME280;6540;50.858;7.232;2023-02-03T05:11:45;51969.53;;;-142.34;32.02
12951;BME280;6540;50.858;7.232;2023-02-03T05:14:11;51894.88;;;-142.34;32.25
12951;BME280;6540;50.858;7.232;2023-02-03T05:16:36;51973.56;;;-142.34;33.22
12951;BME280;6540;50.858;7.232;2023-02-03T05:19:01;51902.97;;;-142.34;31.93
12951;BME280;6540;50.858;7.232;2023-02-03T05:21:27;51911.03;;;-142.34;32.50
12951;BME280;6540;50.858;7.232;2023-02-03T05:23:52;51939.28;;;-142.34;34.50
12951;BME280;6540;50.858;7.232;2023-02-03T05:26:18;51935.25;;;-142.34;32.69
12951;BME280;6540;50.858;7.232;2023-02-03T05:28:43;51907.00;;;-142.34;34.66
12951;BME280;6540;50.858;7.232;2023-02-03T05:31:08;51959.44;;;-142.34;33.06
12951;BME280;6540;50.858;7.232;2023-02-03T05:33:34;51943.31;;;-142.34;32.50
12951;BME280;6540;50.858;7.232;2023-02-03T05:35:59;51919.09;;;-142.34;32.63
12951;BME280;6540;50.858;7.232;2023-02-03T05:38:25;51923.13;;;-142.34;32.31
12951;BME280;6540;50.858;7.232;2023-02-03T05:40:51;51945.31;;;-142.34;31.28
12951;BME280;6540;50.858;7.232;2023-02-03T05:43:36;51927.16;;;-142.34;31.40
12951;BME280;6540;50.858;7.232;2023-02-03T05:46:03;51931.19;;;-142.34;31.62
12951;BME280;6540;50.858;7.232;2023-02-03T05:48:29;51959.44;;;-142.34;32.93
12951;BME280;6540;50.858;7.232;2023-02-03T05:50:54;51888.84;;;-142.34;32.97
12951;BME280;6540;50.858;7.232;2023-02-03T05:53:19;51923.13;;;-142.34;32.29
12951;BME280;6540;50.858;7.232;2023-02-03T05:55:45;51929.19;;;-142.34;31.71
12951;BME280;6540;50.858;7.232;2023-02-03T05:58:10;51915.06;;;-142.34;31.25
12951;BME280;6540;50.858;7.232;2023-02-03T06:00:36;51923.13;;;-142.34;32.90
12951;BME280;6540;50.858;7.232;2023-02-03T06:03:02;51951.38;;;-142.34;32.48
12951;BME280;6540;50.858;7.232;2023-02-03T06:05:29;51955.41;;;-142.34;33.10
12951;BME280;6540;50.858;7.232;2023-02-03T06:07:55;51925.16;;;-142.34;31.55
12951;BME280;6540;50.858;7.232;2023-02-03T06:10:21;51902.97;;;-142.34;33.45
12951;BME280;6540;50.858;7.232;2023-02-03T06:12:46;51927.16;;;-142.34;32.96
12951;BME280;6540;50.858;7.232;2023-02-03T06:15:13;51977.59;;;-142.34;31.48
12951;BME280;6540;50.858;7.232;2023-02-03T06:17:38;51949.34;;;-142.34;31.50
12951;BME280;6540;50.858;7.232;2023-02-03T06:20:05;51939.28;;;-142.34;30.73
12951;BME280;6540;50.858;7.232;2023-02-03T06:22:32;51951.38;;;-142.34;31.91
12951;BME280;6540;50.858;7.232;2023-02-03T06:24:57;51931.19;;;-142.34;31.94
12951;BME280;6540;50.858;7.232;2023-02-03T06:27:22;51949.34;;;-142.34;32.07
12951;BME280;6540;50.858;7.232;2023-02-03T06:29:48;51935.25;;;-142.34;32.73
12951;BME280;6540;50.858;7.232;2023-02-03T06:32:13;51931.19;;;-142.34;32.42
12951;BME280;6540;50.858;7.232;2023-02-03T06:34:39;51931.19;;;-142.34;32.79
12951;BME280;6540;50.858;7.232;2023-02-03T06:37:04;51945.31;;;-142.34;31.50
12951;BME280;6540;50.858;7.232;2023-02-03T06:39:29;51973.56;;;-142.34;31.34
12951;BME280;6540;50.858;7.232;2023-02-03T06:41:55;51959.44;;;-142.34;32.51
12951;BME280;6540;50.858;7.232;2023-02-03T06:44:20;51919.09;;;-142.34;31.46
12951;BME280;6540;50.858;7.232;2023-02-03T06:46:46;51907.00;;;-142.34;33.59
12951;BME280;6540;50.858;7.232;2023-02-03T06:49:11;51904.97;;;-142.34;31.30
12951;BME280;6540;50.858;7.232;2023-02-03T06:51:37;51949.34;;;-142.34;32.44
12951;BME280;6540;50.858;7.232;2023-02-03T06:54:02;51939.28;;;-142.34;31.82
12951;BME280;6540;50.858;7.232;2023-02-03T06:56:29;51939.28;;;-142.34;32.76
12951;BME280;6540;50.858;7.232;2023-02-03T06:58:55;51935.25;;;-142.34;30.19
12951;BME280;6540;50.858;7.232;2023-02-03T07:01:22;51913.03;;;-142.34;32.24
12951;BME280;6540;50.858;7.232;2023-02-03T07:03:47;51939.28;;;-142.34;32.11
12951;BME280;6540;50.858;7.232;2023-02-03T07:06:13;51931.19;;;-142.34;32.41
12951;BME280;6540;50.858;7.232;2023-02-03T07:08:38;51951.38;;;-142.34;32.23
12951;BME280;6540;50.858;7.232;2023-02-03T07:11:04;51911.03;;;-142.34;32.15
12951;BME280;6540;50.858;7.232;2023-02-03T07:13:29;51955.41;;;-142.34;32.09
12951;BME280;6540;50.858;7.232;2023-02-03T07:15:55;51965.50;;;-142.34;31.84
12951;BME280;6540;50.858;7.232;2023-02-03T07:18:20;51923.13;;;-142.34;32.86
12951;BME280;6540;50.858;7.232;2023-02-03T07:20:49;51941.28;;;-142.34;32.25
12951;BME280;6540;50.858;7.232;2023-02-03T07:23:15;51947.34;;;-142.34;32.39
12951;BME280;6540;50.858;7.232;2023-02-03T07:25:40;51949.34;;;-142.34;32.80
12951;BME280;6540;50.858;7.232;2023-02-03T07:28:06;51949.34;;;-142.34;33.47
12951;BME280;6540;50.858;7.232;2023-02-03T07:30:31;51995.75;;;-142.34;32.31
12951;BME280;6540;50.858;7.232;2023-02-03T07:32:57;51947.34;;;-142.34;32.33
12951;BME280;6540;50.858;7.232;2023-02-03T07:35:22;51963.47;;;-142.34;32.05
12951;BME280;6540;50.858;7.232;2023-02-03T07:37:47;51915.06;;;-142.34;32.62
12951;BME280;6540;50.858;7.232;2023-02-03T07:40:13;51951.38;;;-142.34;31.37
12951;BME280;6540;50.858;7.232;2023-02-03T07:42:43;51919.09;;;-142.34;31.56
12951;BME280;6540;50.858;7.232;2023-02-03T07:45:09;51939.28;;;-142.34;31.87
12951;BME280;6540;50.858;7.232;2023-02-03T07:47:35;51939.28;;;-142.34;32.96
12951;BME280;6540;50.858;7.232;2023-02-03T07:50:01;51955.41;;;-142.34;32.01
12951;BME280;6540;50.858;7.232;2023-02-03T07:52:26;51941.28;;;-142.34;32.40
12951;BME280;6540;50.858;7.232;2023-02-03T07:54:51;51929.19;;;-142.34;33.28
12951;BME280;6540;50.858;7.232;2023-02-03T07:57:17;51921.13;;;-142.34;32.83
12951;BME280;6540;50.858;7.232;2023-02-03T07:59:42;51951.38;;;-142.34;31.96
12951;BME280;6540;50.858;7.232;2023-02-03T08:02:09;51909.00;;;-142.34;33.38
12951;BME280;6540;50.858;7.232;2023-02-03T08:04:36;51963.47;;;-142.34;31.08
12951;BME280;6540;50.858;7.232;2023-02-03T08:07:01;51943.31;;;-142.34;31.60
12951;BME280;6540;50.858;7.232;2023-02-03T08:09:27;51915.06;;;-142.34;30.85
12951;BME280;6540;50.858;7.232;2023-02-03T08:11:52;51963.47;;;-142.34;32.96
12951;BME280;6540;50.858;7.232;2023-02-03T08:14:17;51923.13;;;-142.34;31.71
12951;BME280;6540;50.858;7.232;2023-02-03T08:16:43;51931.19;;;-142.34;32.00
12951;BME280;6540;50.858;7.232;2023-02-03T08:19:09;51935.25;;;-142.34;32.60
12951;BME280;6540;50.858;7.232;2023-02-03T08:21:35;51957.44;;;-142.34;32.62
12951;BME280;6540;50.858;7.232;2023-02-03T08:24:03;51957.44;;;-142.34;33.72
12951;BME280;6540;50.858;7.232;2023-02-03T08:26:28;51923.13;;;-142.34;32.13
12951;BME280;6540;50.858;7.232;2023-02-03T08:28:54;51913.03;;;-142.34;32.74
12951;BME280;6540;50.858;7.232;2023-02-03T08:31:19;51951.38;;;-142.34;32.19
12951;BME280;6540;50.858;7.232;2023-02-03T08:33:45;51911.03;;;-142.34;33.43
12951;BME280;6540;50.858;7.232;2023-02-03T08:36:11;51955.41;;;-142.34;32.06
12951;BME280;6540;50.858;7.232;2023-02-03T08:38:37;51933.22;;;-142.34;31.11
12951;BME280;6540;50.858;7.232;2023-02-03T08:41:11;51919.09;;;-142.34;31.88
12951;BME280;6540;50.858;7.232;2023-02-03T08:43:37;51943.31;;;-142.34;32.80
12951;BME280;6540;50.858;7.232;2023-02-03T08:46:04;51935.25;;;-142.34;32.68
12951;BME280;6540;50.858;7.232;2023-02-03T08:48:30;51927.16;;;-142.34;33.66
12951;BME280;6540;50.858;7.232;2023-02-03T08:50:55;51939.28;;;-142.34;32.23
12951;BME280;6540;50.858;7.232;2023-02-03T08:53:21;51959.44;;;-142.34;32.84
12951;BME280;6540;50.858;7.232;2023-02-03T08:55:46;51975.59;;;-142.34;31.68
12951;BME280;6540;50.858;7.232;2023-02-03T08:58:11;51959.44;;;-142.34;32.48
12951;BME280;6540;50.858;7.232;2023-02-03T09:00:37;51915.06;;;-142.34;33.56
12951;BME280;6540;50.858;7.232;2023-02-03T09:03:02;51917.06;;;-142.34;32.83
12951;BME280;6540;50.858;7.232;2023-02-03T09:05:29;51951.38;;;-142.34;32.59
12951;BME280;6540;50.858;7.232;2023-02-03T09:07:55;51963.47;;;-142.34;32.37
12951;BME280;6540;50.858;7.232;2023-02-03T09:10:20;51927.16;;;-142.34;32.47
12951;BME280;6540;50.858;7.232;2023-02-03T09:12:45;51955.41;;;-142.34;32.79
12951;BME280;6540;50.858;7.232;2023-02-03T09:15:11;51935.25;;;-142.34;31.38
12951;BME280;6540;50.858;7.232;2023-02-03T09:17:36;51951.38;;;-142.34;32.31
12951;BME280;6540;50.858;7.232;2023-02-03T09:20:02;51945.31;;;-142.34;32.86
12951;BME280;6540;50.858;7.232;2023-02-03T09:22:27;51963.47;;;-142.34;33.97
12951;BME280;6540;50.858;7.232;2023-02-03T09:24:52;51963.47;;;-142.34;33.42
12951;BME280;6540;50.858;7.232;2023-02-03T09:27:18;51947.34;;;-142.34;33.68
12951;BME280;6540;50.858;7.232;2023-02-03T09:29:43;51931.19;;;-142.34;31.82
12951;BME280;6540;50.858;7.232;2023-02-03T09:32:08;51937.25;;;-142.34;32.21
12951;BME280;6540;50.858;7.232;2023-02-03T09:34:35;51939.28;;;-142.34;34.02
12951;BME280;6540;50.858;7.232;2023-02-03T09:37:00;51945.31;;;-142.34;32.38
12951;BME280;6540;50.858;7.232;2023-02-03T09:39:26;51939.28;;;-142.34;33.41
12951;BME280;6540;50.858;7.232;2023-02-03T09:47:37;51907.00;;;-142.34;32.87
12951;BME280;6540;50.858;7.232;2023-02-03T09:50:11;51935.25;;;-142.34;31.71
12951;BME280;6540;50.858;7.232;2023-02-03T09:52:39;51904.97;;;-142.34;32.96
12951;BME280;6540;50.858;7.232;2023-02-03T09:57:50;51971.53;;;-142.34;33.56
12951;BME280;6540;50.858;7.232;2023-02-03T10:00:25;51925.16;;;-142.34;32.57
12951;BME280;6540;50.858;7.232;2023-02-03T10:02:55;51951.38;;;-142.34;33.23
12951;BME280;6540;50.858;7.232;2023-02-03T10:08:18;51907.00;;;-142.34;34.31
12951;BME280;6540;50.858;7.232;2023-02-03T10:13:28;51951.38;;;-142.34;33.22
12951;BME280;6540;50.858;7.232;2023-02-03T10:18:37;51947.34;;;-142.34;33.61
12951;BME280;6540;50.858;7.232;2023-02-03T10:21:12;51904.97;;;-142.34;33.53
12951;BME280;6540;50.858;7.232;2023-02-03T10:23:41;51923.13;;;-142.34;34.21
12951;BME280;6540;50.858;7.232;2023-02-03T10:26:14;51979.63;;;-142.34;35.06
12951;BME280;6540;50.858;7.232;2023-02-03T10:28:57;51923.13;;;-142.34;33.65
12951;BME280;6540;50.858;7.232;2023-02-03T10:31:27;51957.44;;;-142.34;33.99
12951;BME280;6540;50.858;7.232;2023-02-03T10:34:03;51939.28;;;-142.34;33.91
12951;BME280;6540;50.858;7.232;2023-02-03T10:39:20;51947.34;;;-142.34;33.61
12951;BME280;6540;50.858;7.232;2023-02-03T10:41:48;51927.16;;;-142.34;35.52
12951;BME280;6540;50.858;7.232;2023-02-03T10:44:14;51927.16;;;-142.34;33.75
12951;BME280;6540;50.858;7.232;2023-02-03T10:46:40;51921.13;;;-142.34;35.13
12951;BME280;6540;50.858;7.232;2023-02-03T10:49:08;51959.44;;;-142.34;35.19
12951;BME280;6540;50.858;7.232;2023-02-03T10:51:42;51931.19;;;-142.34;33.10
12951;BME280;6540;50.858;7.232;2023-02-03T10:54:26;51959.44;;;-142.34;34.65
12951;BME280;6540;50.858;7.232;2023-02-03T10:56:52;51963.47;;;-142.34;35.71
12951;BME280;6540;50.858;7.232;2023-02-03T10:59:30;51941.28;;;-142.34;34.46
12951;BME280;6540;50.858;7.232;2023-02-03T11:01:55;51919.09;;;-142.34;34.72
12951;BME280;6540;50.858;7.232;2023-02-03T11:04:27;51961.47;;;-142.34;35.22
12951;BME280;6540;50.858;7.232;2023-02-03T11:06:58;51945.31;;;-142.34;34.95
12951;BME280;6540;50.858;7.232;2023-02-03T11:12:18;51939.28;;;-142.34;34.92
12951;BME280;6540;50.858;7.232;2023-02-03T11:14:44;51929.19;;;-142.34;36.57
12951;BME280;6540;50.858;7.232;2023-02-03T11:17:21;51919.09;;;-142.34;35.07
12951;BME280;6540;50.858;7.232;2023-02-03T11:19:52;51921.13;;;-142.34;35.98
12951;BME280;6540;50.858;7.232;2023-02-03T11:22:29;51951.38;;;-142.34;34.75
12951;BME280;6540;50.858;7.232;2023-02-03T11:24:56;51951.38;;;-142.34;35.98
12951;BME280;6540;50.858;7.232;2023-02-03T11:27:22;51931.19;;;-142.34;36.90
12951;BME280;6540;50.858;7.232;2023-02-03T11:29:53;51937.25;;;-142.34;35.17
12951;BME280;6540;50.858;7.232;2023-02-03T11:32:35;51919.09;;;-142.34;35.35
12951;BME280;6540;50.858;7.232;2023-02-03T11:37:48;51983.66;;;-142.34;35.62
12951;BME280;6540;50.858;7.232;2023-02-03T11:43:01;51951.38;;;-142.34;36.47
12951;BME280;6540;50.858;7.232;2023-02-03T11:50:41;51959.44;;;-142.34;34.61
12951;BME280;6540;50.858;7.232;2023-02-03T12:01:18;51951.38;;;-142.34;35.54
12951;BME280;6540;50.858;7.232;2023-02-03T12:11:32;51959.44;;;-142.34;33.77
12951;BME280;6540;50.858;7.232;2023-02-03T12:14:34;51913.03;;;-142.34;34.48
12951;BME280;6540;50.858;7.232;2023-02-03T12:20:38;51935.25;;;-142.34;32.08
12951;BME280;6540;50.858;7.232;2023-02-03T12:31:39;51943.31;;;-142.34;34.02
12951;BME280;6540;50.858;7.232;2023-02-03T12:34:17;51902.97;;;-142.34;34.66
12951;BME280;6540;50.858;7.232;2023-02-03T12:36:51;51935.25;;;-142.34;35.67
12951;BME280;6540;50.858;7.232;2023-02-03T12:41:58;51894.88;;;-142.34;33.13
12951;BME280;6540;50.858;7.232;2023-02-03T12:44:29;51935.25;;;-142.34;34.94
12951;BME280;6540;50.858;7.232;2023-02-03T12:47:13;51878.75;;;-142.34;33.76
12951;BME280;6540;50.858;7.232;2023-02-03T12:49:46;51935.25;;;-142.34;32.67
12951;BME280;6540;50.858;7.232;2023-02-03T12:57:51;51923.13;;;-142.34;33.54
12951;BME280;6540;50.858;7.232;2023-02-03T13:00:56;51951.38;;;-142.34;34.63
12951;BME280;6540;50.858;7.232;2023-02-03T13:03:34;51923.13;;;-142.34;34.06
12951;BME280;6540;50.858;7.232;2023-02-03T13:08:46;51987.69;;;-142.34;34.68
12951;BME280;6540;50.858;7.232;2023-02-03T13:11:33;51925.16;;;-142.34;31.94
12951;BME280;6540;50.858;7.232;2023-02-03T13:14:37;51955.41;;;-142.34;33.94
12951;BME280;6540;50.858;7.232;2023-02-03T13:17:26;51915.06;;;-142.34;35.00
12951;BME280;6540;50.858;7.232;2023-02-03T13:19:57;51943.31;;;-142.34;34.50
12951;BME280;6540;50.858;7.232;2023-02-03T13:22:24;51963.47;;;-142.34;35.13
12951;BME280;6540;50.858;7.232;2023-02-03T13:24:56;51935.25;;;-142.34;34.50
12951;BME280;6540;50.858;7.232;2023-02-03T13:44:11;51959.44;;;-142.34;35.05
12951;BME280;6540;50.858;7.232;2023-02-03T13:46:41;51919.09;;;-142.34;33.46
12951;BME280;6540;50.858;7.232;2023-02-03T13:49:20;51943.31;;;-142.34;33.85
12951;BME280;6540;50.858;7.232;2023-02-03T13:51:47;51975.59;;;-142.34;35.84
12951;BME280;6540;50.858;7.232;2023-02-03T13:54:19;51894.88;;;-142.34;35.78
12951;BME280;6540;50.858;7.232;2023-02-03T13:57:35;51949.34;;;-142.34;35.86
12951;BME280;6540;50.858;7.232;2023-02-03T14:00:56;51955.41;;;-142.34;34.77
12951;BME280;6540;50.858;7.232;2023-02-03T14:02:53;51935.25;;;-142.34;35.27
12951;BME280;6540;50.858;7.232;2023-02-03T14:05:39;51937.25;;;-142.34;35.28
12951;BME280;6540;50.858;7.232;2023-02-03T14:19:02;51913.03;;;-142.34;35.56
12951;BME280;6540;50.858;7.232;2023-02-03T14:21:51;51947.34;;;-142.34;37.12
12951;BME280;6540;50.858;7.232;2023-02-03T14:24:17;51947.34;;;-142.34;35.16
12951;BME280;6540;50.858;7.232;2023-02-03T14:26:54;51925.16;;;-142.34;33.83
12951;BME280;6540;50.858;7.232;2023-02-03T14:29:26;51933.22;;;-142.34;35.49
12951;BME280;6540;50.858;7.232;2023-02-03T14:32:04;51923.13;;;-142.34;35.44
12951;BME280;6540;50.858;7.232;2023-02-03T14:34:44;51935.25;;;-142.34;36.32
12951;BME280;6540;50.858;7.232;2023-02-03T14:37:23;51907.00;;;-142.34;35.16
12951;BME280;6540;50.858;7.232;2023-02-03T14:56:36;51935.25;;;-142.34;35.96
12951;BME280;6540;50.858;7.232;2023-02-03T14:59:28;51935.25;;;-142.34;34.46
12951;BME280;6540;50.858;7.232;2023-02-03T15:02:10;51959.44;;;-142.34;34.87
12951;BME280;6540;50.858;7.232;2023-02-03T15:04:35;51929.19;;;-142.34;36.08
12951;BME280;6540;50.858;7.232;2023-02-03T15:07:01;51939.28;;;-142.34;34.79
12951;BME280;6540;50.858;7.232;2023-02-03T15:09:42;51923.13;;;-142.34;34.21
12951;BME280;6540;50.858;7.232;2023-02-03T15:12:24;51941.28;;;-142.34;33.80
12951;BME280;6540;50.858;7.232;2023-02-03T15:14:50;51943.31;;;-142.34;33.67
12951;BME280;6540;50.858;7.232;2023-02-03T15:19:49;51894.88;;;-142.34;36.29